Time;durP1;ratioP1;P1;durP2;ratioP2;P2;SDS_P1;SDS_P2;PMS_P1;PMS_P2;Temp;Humidity;BMP_temperature;BMP_pressure;BME280_temperature;BME280_humidity;BME280_pressure;Samples;Min_cycle;Max_cycle;Signal;HPM_P1;HPM_P2
2023/03/31 00:01:47;;;;;;;27.40;6.23;;;10.70;99.90;;;;;;5035733;28;20428;-47
2023/03/31 00:04:13;;;;;;;31.43;6.10;;;10.70;99.90;;;;;;5035780;28;20467;-47
2023/03/31 00:06:40;;;;;;;23.30;6.47;;;10.70;99.90;;;;;;5036170;28;20186;-47
2023/03/31 00:09:09;;;;;;;24.50;5.63;;;10.70;99.90;;;;;;5035637;28;20190;-47
2023/03/31 00:11:35;;;;;;;39.57;6.73;;;10.70;99.90;;;;;;5035791;28;20416;-47
2023/03/31 00:14:00;;;;;;;22.90;5.70;;;10.70;99.90;;;;;;5035525;28;20920;-47
2023/03/31 00:16:26;;;;;;;21.47;5.43;;;10.70;99.90;;;;;;5035682;28;20661;-47
2023/03/31 00:18:52;;;;;;;25.93;5.40;;;10.70;99.90;;;;;;5035563;28;20592;-47
2023/03/31 00:21:27;;;;;;;16.87;5.50;;;10.70;99.90;;;;;;5035508;28;20536;-47
2023/03/31 00:23:58;;;;;;;26.00;5.40;;;10.70;99.90;;;;;;5035823;28;20211;-47
2023/03/31 00:26:25;;;;;;;33.30;6.17;;;10.70;99.90;;;;;;5035327;28;20924;-47
2023/03/31 00:28:51;;;;;;;22.50;4.90;;;10.70;99.90;;;;;;5035014;28;20417;-47
2023/03/31 00:31:18;;;;;;;26.30;5.10;;;10.70;99.90;;;;;;5035566;28;20475;-47
2023/03/31 00:33:43;;;;;;;21.23;4.83;;;10.70;99.90;;;;;;5035376;28;20421;-47
2023/03/31 00:36:09;;;;;;;20.80;4.33;;;10.60;99.90;;;;;;5035069;28;20978;-47
2023/03/31 00:38:35;;;;;;;18.60;5.00;;;10.60;99.90;;;;;;5035154;28;20183;-47
2023/03/31 00:41:02;;;;;;;21.00;5.13;;;10.60;99.90;;;;;;5035229;28;20179;-47
2023/03/31 00:43:34;;;;;;;19.90;4.20;;;10.60;99.90;;;;;;5035120;28;20300;-47
2023/03/31 00:46:23;;;;;;;24.07;4.43;;;10.60;99.90;;;;;;5035354;28;20490;-47
2023/03/31 00:48:56;;;;;;;13.00;3.87;;;10.50;99.90;;;;;;5034739;28;20812;-48
2023/03/31 00:51:27;;;;;;;17.53;4.20;;;10.60;99.90;;;;;;5034656;28;20424;-48
2023/03/31 00:54:01;;;;;;;21.30;4.40;;;10.60;97.40;;;;;;5035309;28;20393;-48
2023/03/31 00:56:32;;;;;;;15.27;3.90;;;10.60;82.90;;;;;;5034878;28;20428;-48
2023/03/31 00:59:02;;;;;;;17.53;4.43;;;10.60;56.10;;;;;;5034883;28;20424;-48
2023/03/31 01:01:29;;;;;;;22.70;4.43;;;10.60;40.00;;;;;;5034812;28;20507;-48
2023/03/31 01:03:56;;;;;;;22.97;4.50;;;10.50;26.80;;;;;;5034860;28;20494;-48
2023/03/31 01:06:24;;;;;;;15.80;3.97;;;10.50;22.60;;;;;;5034786;28;20443;-48
2023/03/31 01:08:51;;;;;;;21.17;3.73;;;10.50;22.30;;;;;;5034636;28;20415;-48
2023/03/31 01:11:19;;;;;;;27.73;4.67;;;10.50;18.50;;;;;;5034161;28;20432;-49
2023/03/31 01:13:49;;;;;;;23.77;4.53;;;10.50;13.50;;;;;;5034629;28;20846;-48
2023/03/31 01:16:16;;;;;;;17.87;3.90;;;10.50;8.10;;;;;;5034954;28;20479;-48
2023/03/31 01:18:45;;;;;;;17.57;3.90;;;10.50;1.00;;;;;;5034638;28;20428;-48
2023/03/31 01:21:29;;;;;;;18.90;4.10;;;10.50;1.00;;;;;;5034453;28;20807;-48
2023/03/31 01:24:14;;;;;;;22.67;4.30;;;10.50;1.00;;;;;;5034170;28;20804;-48
2023/03/31 01:27:07;;;;;;;22.23;5.53;;;10.50;1.00;;;;;;5034652;28;20412;-49
2023/03/31 01:29:52;;;;;;;17.20;4.63;;;10.50;1.00;;;;;;5034518;28;20762;-49
2023/03/31 01:32:36;;;;;;;21.20;4.87;;;10.50;1.00;;;;;;5034341;28;20488;-49
2023/03/31 01:35:22;;;;;;;31.00;5.57;;;10.50;1.00;;;;;;5034127;28;20845;-49
2023/03/31 01:38:25;;;;;;;22.60;5.00;;;10.60;1.00;;;;;;5034482;28;20421;-49
2023/03/31 01:41:16;;;;;;;21.90;4.20;;;10.60;1.00;;;;;;5033764;28;20954;-49
2023/03/31 01:44:09;;;;;;;26.67;4.07;;;10.60;1.00;;;;;;5034024;28;20468;-49
2023/03/31 01:46:40;;;;;;;23.37;4.90;;;10.70;1.00;;;;;;5033946;28;20479;-49
2023/03/31 01:49:24;;;;;;;24.87;4.33;;;10.80;1.00;;;;;;5034114;28;20434;-49
2023/03/31 01:52:21;;;;;;;19.33;4.63;;;10.80;1.00;;;;;;5034273;28;20873;-49
2023/03/31 01:55:15;;;;;;;17.07;3.93;;;10.80;1.00;;;;;;5033715;28;20408;-49
2023/03/31 01:58:06;;;;;;;23.80;4.73;;;10.80;1.00;;;;;;5033717;28;20436;-49
2023/03/31 02:00:38;;;;;;;26.10;4.90;;;10.80;1.00;;;;;;5033924;28;20551;-49
2023/03/31 02:03:15;;;;;;;30.10;5.17;;;10.80;1.00;;;;;;5033997;28;20943;-49
2023/03/31 02:05:48;;;;;;;17.40;3.77;;;10.80;1.00;;;;;;5033728;28;20955;-49
2023/03/31 02:08:19;;;;;;;24.13;4.53;;;10.70;1.00;;;;;;5033842;28;20866;-50
2023/03/31 02:10:46;;;;;;;21.33;4.67;;;10.80;1.00;;;;;;5033922;28;20408;-49
2023/03/31 02:13:14;;;;;;;26.43;4.70;;;10.70;1.00;;;;;;5033413;28;20440;-49
2023/03/31 02:15:45;;;;;;;21.67;4.83;;;10.60;1.00;;;;;;5033792;28;20426;-49
2023/03/31 02:18:17;;;;;;;25.30;5.10;;;10.60;1.00;;;;;;5033585;28;20783;-48
2023/03/31 02:20:46;;;;;;;21.33;4.77;;;10.70;1.00;;;;;;5033360;28;20446;-49
2023/03/31 02:23:14;;;;;;;29.67;5.60;;;10.70;1.00;;;;;;5033811;28;20500;-49
2023/03/31 02:25:47;;;;;;;27.83;5.60;;;10.60;1.00;;;;;;5033680;28;20419;-49
2023/03/31 02:28:19;;;;;;;23.30;5.33;;;10.60;1.00;;;;;;5033371;28;20888;-49
2023/03/31 02:30:53;;;;;;;16.93;5.40;;;10.60;1.00;;;;;;5033463;28;20413;-49
2023/03/31 02:33:19;;;;;;;14.80;4.97;;;10.50;1.00;;;;;;5033357;28;20440;-49
2023/03/31 02:35:44;;;;;;;13.80;4.60;;;10.50;1.00;;;;;;5033132;28;20412;-49
2023/03/31 02:38:10;;;;;;;22.97;5.53;;;10.50;1.00;;;;;;5033304;28;20198;-49
2023/03/31 02:40:36;;;;;;;24.70;6.70;;;10.50;1.00;;;;;;5033324;28;20691;-49
2023/03/31 02:43:02;;;;;;;20.67;5.77;;;10.50;1.00;;;;;;5033768;28;20221;-49
2023/03/31 02:45:48;;;;;;;21.73;5.60;;;10.50;1.00;;;;;;5033031;28;20471;-49
2023/03/31 02:48:26;;;;;;;20.67;5.67;;;10.50;1.00;;;;;;5033334;28;20409;-49
2023/03/31 02:51:06;;;;;;;18.60;6.53;;;10.50;1.00;;;;;;5035039;28;20412;-49
2023/03/31 02:53:50;;;;;;;25.77;5.80;;;10.40;1.00;;;;;;5037212;28;20917;-49
2023/03/31 02:56:16;;;;;;;21.83;5.73;;;10.40;1.00;;;;;;5037040;28;20836;-49
2023/03/31 02:59:08;;;;;;;23.40;6.60;;;10.40;1.00;;;;;;5037157;28;20916;-49
2023/03/31 03:01:47;;;;;;;26.43;7.80;;;10.40;1.00;;;;;;5026835;28;20190;-49
2023/03/31 03:04:33;;;;;;;27.07;7.20;;;10.30;1.00;;;;;;5036895;28;20468;-49
2023/03/31 03:07:23;;;;;;;20.60;6.53;;;10.30;1.00;;;;;;5037141;28;20499;-49
2023/03/31 03:09:57;;;;;;;19.87;6.30;;;10.30;1.00;;;;;;5037269;28;20771;-49
2023/03/31 03:12:43;;;;;;;17.57;6.20;;;10.30;1.00;;;;;;5036503;28;20417;-49
2023/03/31 03:15:34;;;;;;;18.77;6.50;;;10.30;1.00;;;;;;5036997;28;20409;-49
2023/03/31 03:18:00;;;;;;;16.50;6.20;;;10.30;1.00;;;;;;5036586;28;20405;-49
2023/03/31 03:20:26;;;;;;;19.03;6.47;;;10.30;1.00;;;;;;5036348;28;20963;-49
2023/03/31 03:22:51;;;;;;;17.40;6.23;;;10.30;1.00;;;;;;5036738;28;20468;-49
2023/03/31 03:25:19;;;;;;;20.40;6.63;;;10.30;1.00;;;;;;5036467;28;20618;-48
2023/03/31 03:27:44;;;;;;;24.03;6.77;;;10.30;1.00;;;;;;5036865;28;20182;-48
2023/03/31 03:30:12;;;;;;;25.40;6.93;;;10.30;1.00;;;;;;5036692;28;20523;-48
2023/03/31 03:32:38;;;;;;;18.90;7.20;;;10.20;1.00;;;;;;5036480;28;20273;-48
2023/03/31 03:35:05;;;;;;;25.83;7.63;;;10.20;1.00;;;;;;5036047;28;20444;-48
2023/03/31 03:37:31;;;;;;;16.63;6.50;;;10.10;1.00;;;;;;5035937;28;20471;-48
2023/03/31 03:39:56;;;;;;;21.33;6.40;;;10.10;1.00;;;;;;5036233;28;20551;-48
2023/03/31 03:42:22;;;;;;;20.47;7.30;;;10.10;1.00;;;;;;5035912;28;20312;-47
2023/03/31 03:44:48;;;;;;;21.27;6.93;;;10.10;1.00;;;;;;5035953;28;20324;-47
2023/03/31 03:47:14;;;;;;;17.60;6.53;;;10.10;8.90;;;;;;5036353;28;20188;-47
2023/03/31 03:49:39;;;;;;;15.23;6.30;;;10.10;16.90;;;;;;5036502;28;20189;-47
2023/03/31 03:52:05;;;;;;;20.70;6.87;;;10.20;10.90;;;;;;5036169;28;20524;-47
2023/03/31 03:54:31;;;;;;;21.30;6.47;;;10.20;1.00;;;;;;5035974;28;20273;-47
2023/03/31 03:56:57;;;;;;;18.87;8.10;;;10.20;1.00;;;;;;5035874;28;20194;-47
2023/03/31 03:59:22;;;;;;;13.90;6.50;;;10.30;1.00;;;;;;5035981;28;20190;-48
2023/03/31 04:01:48;;;;;;;18.83;6.80;;;10.20;1.00;;;;;;5035302;28;20190;-48
2023/03/31 04:04:14;;;;;;;23.77;7.60;;;10.20;1.00;;;;;;5035749;28;20206;-48
2023/03/31 04:06:39;;;;;;;20.93;7.17;;;10.20;1.00;;;;;;5036170;28;20637;-48
2023/03/31 04:09:05;;;;;;;15.70;6.90;;;10.30;1.00;;;;;;5036208;28;20281;-48
2023/03/31 04:11:31;;;;;;;18.17;6.67;;;10.30;1.00;;;;;;5035890;28;20288;-48
2023/03/31 04:13:56;;;;;;;22.37;7.40;;;10.30;1.00;;;;;;5035917;28;20189;-48
2023/03/31 04:16:24;;;;;;;17.47;7.43;;;10.30;1.00;;;;;;5035450;28;20182;-48
2023/03/31 04:18:51;;;;;;;18.87;7.03;;;10.40;1.00;;;;;;5035900;28;20181;-48
2023/03/31 04:21:23;;;;;;;24.37;7.40;;;10.30;1.00;;;;;;5035636;28;20417;-48
2023/03/31 04:24:05;;;;;;;23.03;7.60;;;10.30;1.00;;;;;;5035879;28;20915;-49
2023/03/31 04:26:45;;;;;;;19.70;7.73;;;10.30;1.00;;;;;;5033995;28;20780;-48
2023/03/31 04:29:12;;;;;;;16.00;7.40;;;10.30;1.00;;;;;;5035623;28;20423;-48
2023/03/31 04:31:41;;;;;;;18.03;7.07;;;10.30;1.00;;;;;;5035619;28;20420;-48
2023/03/31 04:34:11;;;;;;;19.93;7.87;;;10.40;1.00;;;;;;5035398;28;20416;-48
2023/03/31 04:36:41;;;;;;;26.93;8.00;;;10.40;1.00;;;;;;5035270;28;20973;-48
2023/03/31 04:39:11;;;;;;;24.60;7.33;;;10.40;1.00;;;;;;5035311;28;20429;-48
2023/03/31 04:41:36;;;;;;;19.23;8.10;;;10.50;1.00;;;;;;5034909;28;20421;-48
2023/03/31 04:44:02;;;;;;;17.20;8.40;;;10.40;1.00;;;;;;5034696;28;20542;-48
2023/03/31 04:46:27;;;;;;;23.60;8.10;;;10.40;1.00;;;;;;5035329;28;20178;-48
2023/03/31 04:48:53;;;;;;;23.07;8.40;;;10.40;1.00;;;;;;5035354;28;20558;-48
2023/03/31 04:51:19;;;;;;;17.00;8.97;;;10.40;1.00;;;;;;5034767;28;20175;-48
2023/03/31 04:53:45;;;;;;;17.57;8.60;;;10.40;1.00;;;;;;5034979;28;20189;-48
2023/03/31 04:56:11;;;;;;;18.50;8.43;;;10.40;1.00;;;;;;5034983;28;20208;-48
2023/03/31 04:58:37;;;;;;;21.77;9.83;;;10.50;1.00;;;;;;5034600;28;20421;-48
2023/03/31 05:01:06;;;;;;;22.87;9.33;;;10.50;1.00;;;;;;5034433;28;20431;-48
2023/03/31 05:03:33;;;;;;;24.53;9.40;;;10.50;1.00;;;;;;5034409;28;20226;-48
2023/03/31 05:05:58;;;;;;;21.50;9.10;;;10.50;1.00;;;;;;5034779;28;20468;-48
2023/03/31 05:08:25;;;;;;;21.33;9.47;;;10.50;1.00;;;;;;5034572;28;20453;-48
2023/03/31 05:10:51;;;;;;;24.50;9.60;;;10.60;1.00;;;;;;5034803;28;20186;-48
2023/03/31 05:13:17;;;;;;;23.00;10.57;;;10.50;1.00;;;;;;5034509;28;20444;-48
2023/03/31 05:15:44;;;;;;;23.50;10.33;;;10.50;1.00;;;;;;5034132;28;20280;-48
2023/03/31 05:18:09;;;;;;;23.60;8.90;;;10.50;1.00;;;;;;5034812;28;20187;-48
2023/03/31 05:20:35;;;;;;;19.97;9.40;;;10.50;1.00;;;;;;5034527;28;20478;-48
2023/03/31 05:23:01;;;;;;;26.93;9.87;;;10.60;1.00;;;;;;5034131;28;20209;-48
2023/03/31 05:25:31;;;;;;;25.80;10.50;;;10.60;1.00;;;;;;5034471;28;20638;-49
2023/03/31 05:27:58;;;;;;;34.27;10.30;;;10.60;1.00;;;;;;5034411;28;20540;-48
2023/03/31 05:30:25;;;;;;;27.73;10.60;;;10.50;1.00;;;;;;5034383;28;20547;-48
2023/03/31 05:32:51;;;;;;;22.77;10.60;;;10.50;1.00;;;;;;5034299;28;20425;-48
2023/03/31 05:35:16;;;;;;;24.43;10.20;;;10.50;1.00;;;;;;5034548;28;20471;-48
2023/03/31 05:37:42;;;;;;;24.93;10.10;;;10.50;1.00;;;;;;5034259;28;20421;-48
2023/03/31 05:40:08;;;;;;;19.20;10.30;;;10.50;1.00;;;;;;5034117;28;20173;-48
2023/03/31 05:42:35;;;;;;;21.43;9.97;;;10.50;1.00;;;;;;5033938;28;20190;-48
2023/03/31 05:45:00;;;;;;;23.03;10.40;;;10.60;1.00;;;;;;5034243;28;20468;-48
2023/03/31 05:47:26;;;;;;;24.43;9.97;;;10.60;1.00;;;;;;5034499;28;20425;-48
2023/03/31 05:49:52;;;;;;;27.70;9.73;;;10.60;1.00;;;;;;5033829;28;20244;-49
2023/03/31 05:52:18;;;;;;;26.97;9.40;;;10.70;1.00;;;;;;5033721;28;20546;-49
2023/03/31 05:54:43;;;;;;;20.90;9.67;;;10.70;1.00;;;;;;5033018;28;20201;-48
2023/03/31 05:57:09;;;;;;;26.77;9.60;;;10.60;1.00;;;;;;5033816;28;20905;-48
2023/03/31 05:59:35;;;;;;;19.60;9.10;;;10.70;1.00;;;;;;5033276;28;20768;-49
2023/03/31 06:02:04;;;;;;;24.10;8.70;;;10.70;1.00;;;;;;5033430;28;20462;-49
2023/03/31 06:04:31;;;;;;;23.27;8.87;;;10.70;1.00;;;;;;5033841;28;20217;-48
2023/03/31 06:06:57;;;;;;;26.17;10.00;;;10.70;1.00;;;;;;5033548;28;20425;-49
2023/03/31 06:09:23;;;;;;;19.73;9.73;;;10.80;1.00;;;;;;5033287;28;20419;-49
2023/03/31 06:11:49;;;;;;;22.13;9.27;;;10.80;1.00;;;;;;5033308;28;20450;-49
2023/03/31 06:14:14;;;;;;;21.23;8.33;;;10.80;1.00;;;;;;5033607;28;20433;-49
2023/03/31 06:16:40;;;;;;;23.67;9.17;;;10.90;99.90;;;;;;5033472;28;20218;-48
2023/03/31 06:19:06;;;;;;;25.77;8.50;;;10.90;99.90;;;;;;5033196;28;20258;-49
2023/03/31 06:21:31;;;;;;;20.90;9.50;;;10.90;99.90;;;;;;5033467;28;20526;-49
2023/03/31 06:23:59;;;;;;;19.43;8.53;;;11.00;99.90;;;;;;5033432;28;20214;-49
2023/03/31 06:26:24;;;;;;;18.07;8.40;;;11.00;99.90;;;;;;5036098;28;20583;-49
2023/03/31 06:28:50;;;;;;;25.90;7.60;;;11.10;99.90;;;;;;5037268;28;20408;-49
2023/03/31 06:31:19;;;;;;;20.63;8.33;;;11.10;99.90;;;;;;5037080;28;20186;-49
2023/03/31 06:33:46;;;;;;;22.13;8.60;;;11.10;99.90;;;;;;5037479;28;20252;-49
2023/03/31 06:36:13;;;;;;;18.23;7.97;;;11.10;99.90;;;;;;5037434;28;20413;-49
2023/03/31 06:38:39;;;;;;;24.93;8.83;;;11.10;99.90;;;;;;5037580;28;20440;-49
2023/03/31 06:41:07;;;;;;;18.50;7.67;;;11.10;99.90;;;;;;5037140;28;20518;-49
2023/03/31 06:43:33;;;;;;;24.00;8.90;;;11.20;99.90;;;;;;5036825;28;20697;-49
2023/03/31 06:45:59;;;;;;;23.73;8.13;;;11.20;99.90;;;;;;5037115;28;20429;-49
2023/03/31 06:48:25;;;;;;;21.47;8.00;;;11.20;99.90;;;;;;5035869;28;20190;-49
2023/03/31 06:50:53;;;;;;;20.67;9.17;;;11.20;99.90;;;;;;5037221;28;20515;-48
2023/03/31 06:53:19;;;;;;;18.43;8.00;;;11.20;93.80;;;;;;5037051;28;20436;-49
2023/03/31 06:55:44;;;;;;;20.47;7.93;;;11.40;52.80;;;;;;5037040;28;20421;-50
2023/03/31 06:58:11;;;;;;;21.27;7.60;;;11.50;55.30;;;;;;5036913;28;20643;-50
2023/03/31 07:00:36;;;;;;;18.73;7.87;;;11.50;1.00;;;;;;5036847;28;20215;-49
2023/03/31 07:03:03;;;;;;;24.23;8.63;;;11.50;1.00;;;;;;5036762;28;20472;-49
2023/03/31 07:05:29;;;;;;;23.57;8.83;;;11.50;1.00;;;;;;5037164;28;20539;-49
2023/03/31 07:07:57;;;;;;;14.40;7.13;;;11.60;1.00;;;;;;5036537;28;20493;-49
2023/03/31 07:10:24;;;;;;;21.53;8.00;;;11.60;1.00;;;;;;5036787;28;20428;-49
2023/03/31 07:12:50;;;;;;;14.83;7.77;;;11.60;99.90;;;;;;5036802;28;20779;-49
2023/03/31 07:15:15;;;;;;;19.50;8.00;;;11.70;99.90;;;;;;5036320;28;20421;-49
2023/03/31 07:17:41;;;;;;;17.37;7.57;;;11.70;99.90;;;;;;5036566;28;20512;-49
2023/03/31 07:20:11;;;;;;;17.93;7.27;;;11.70;99.90;;;;;;5036911;28;20194;-49
2023/03/31 07:22:38;;;;;;;15.13;7.27;;;11.80;99.90;;;;;;5036357;28;20912;-49
2023/03/31 07:25:04;;;;;;;16.63;6.90;;;11.80;99.90;;;;;;5036826;28;20420;-49
2023/03/31 07:27:30;;;;;;;15.00;7.10;;;11.90;99.90;;;;;;5036436;28;20470;-49
2023/03/31 07:29:55;;;;;;;12.00;7.10;;;12.00;1.00;;;;;;5036775;28;20508;-49
2023/03/31 07:32:22;;;;;;;20.80;7.47;;;12.00;99.90;;;;;;5036417;28;20279;-49
2023/03/31 07:34:47;;;;;;;19.23;7.57;;;12.00;1.00;;;;;;5036581;28;20190;-49
2023/03/31 07:37:13;;;;;;;15.60;7.33;;;12.00;99.90;;;;;;5034561;28;20436;-50
2023/03/31 07:39:39;;;;;;;13.53;6.93;;;12.10;99.90;;;;;;5036204;28;20178;-49
2023/03/31 07:42:05;;;;;;;19.23;7.10;;;12.00;1.00;;;;;;5036524;28;20210;-49
2023/03/31 07:44:33;;;;;;;14.67;6.80;;;12.00;99.90;;;;;;5035959;28;20241;-49
2023/03/31 07:47:03;;;;;;;15.80;6.90;;;11.90;99.90;;;;;;5035923;28;20193;-50
2023/03/31 07:49:29;;;;;;;13.43;6.60;;;11.90;99.90;;;;;;5035910;28;20989;-49
2023/03/31 07:51:55;;;;;;;15.70;6.70;;;11.80;1.00;;;;;;5036205;28;20455;-50
2023/03/31 07:54:21;;;;;;;15.63;6.50;;;11.80;99.90;;;;;;5035974;28;20473;-50
2023/03/31 07:56:46;;;;;;;17.53;6.67;;;11.80;1.00;;;;;;5036224;28;20412;-49
2023/03/31 07:59:12;;;;;;;13.13;6.30;;;11.70;1.00;;;;;;5035907;28;20189;-49
2023/03/31 08:01:38;;;;;;;13.03;6.10;;;11.70;99.90;;;;;;5035000;28;20186;-50
2023/03/31 08:04:04;;;;;;;15.37;6.23;;;11.60;99.90;;;;;;5035759;28;20210;-50
2023/03/31 08:06:30;;;;;;;14.10;6.20;;;11.60;99.90;;;;;;5035880;28;20197;-49
2023/03/31 08:08:56;;;;;;;10.83;6.57;;;11.50;1.00;;;;;;5035863;28;20418;-49
2023/03/31 08:11:23;;;;;;;8.43;6.20;;;11.40;1.00;;;;;;5035824;28;20630;-49
2023/03/31 08:13:49;;;;;;;10.50;6.10;;;11.40;92.40;;;;;;5035986;28;20428;-49
2023/03/31 08:16:15;;;;;;;13.60;6.10;;;11.40;99.90;;;;;;5035930;28;20421;-49
2023/03/31 08:18:41;;;;;;;11.97;6.20;;;11.30;99.90;;;;;;5035982;28;20436;-49
2023/03/31 08:21:08;;;;;;;16.37;7.30;;;11.30;99.90;;;;;;5035203;28;20182;-49
2023/03/31 08:23:34;;;;;;;12.83;5.97;;;11.30;99.90;;;;;;5035804;28;20209;-49
2023/03/31 08:26:23;;;;;;;9.57;6.03;;;11.40;99.90;;;;;;5035866;28;20449;-48
2023/03/31 08:28:49;;;;;;;9.90;5.27;;;11.30;99.90;;;;;;5035615;28;20524;-48
2023/03/31 08:31:16;;;;;;;12.37;5.97;;;11.40;99.90;;;;;;5035424;28;20425;-49
2023/03/31 08:33:41;;;;;;;15.47;6.00;;;11.40;99.90;;;;;;5035297;28;20459;-49
2023/03/31 08:36:09;;;;;;;8.63;4.93;;;11.40;99.90;;;;;;5035409;28;20417;-49
2023/03/31 08:38:40;;;;;;;14.07;5.40;;;11.40;99.90;;;;;;5035488;28;20639;-50
2023/03/31 08:41:14;;;;;;;11.40;5.30;;;11.40;99.90;;;;;;5035238;28;20420;-48
2023/03/31 08:43:44;;;;;;;9.17;5.60;;;11.60;1.00;;;;;;5035034;28;20457;-48
2023/03/31 08:46:12;;;;;;;9.23;6.13;;;11.60;99.90;;;;;;5035584;28;20467;-48
2023/03/31 08:48:47;;;;;;;11.00;5.10;;;11.50;99.90;;;;;;5034289;28;20435;-48
2023/03/31 08:51:29;;;;;;;7.77;4.93;;;11.50;99.90;;;;;;5035249;28;20405;-48
2023/03/31 08:54:03;;;;;;;10.60;6.00;;;11.50;99.90;;;;;;5035135;28;20790;-48
2023/03/31 08:56:38;;;;;;;11.63;5.93;;;11.40;1.00;;;;;;5034982;28;20419;-48
2023/03/31 08:59:05;;;;;;;9.37;5.33;;;11.40;1.00;;;;;;5034930;28;20766;-48
2023/03/31 09:01:43;;;;;;;9.73;4.87;;;11.40;99.90;;;;;;5034710;28;20416;-48
2023/03/31 09:04:39;;;;;;;7.70;5.03;;;11.30;99.90;;;;;;5034954;28;20447;-48
2023/03/31 09:07:07;;;;;;;8.93;5.17;;;11.20;1.00;;;;;;5034719;28;20421;-48
2023/03/31 09:09:59;;;;;;;7.13;4.33;;;11.20;1.00;;;;;;5034297;28;20416;-49
2023/03/31 09:12:51;;;;;;;8.13;4.70;;;11.10;1.00;;;;;;5035062;28;20432;-48
2023/03/31 09:15:36;;;;;;;9.90;5.20;;;11.00;1.00;;;;;;5034557;28;20464;-48
2023/03/31 09:18:26;;;;;;;15.30;5.43;;;11.10;1.00;;;;;;5034399;28;20896;-48
2023/03/31 09:20:56;;;;;;;5.30;4.70;;;11.20;1.00;;;;;;5033950;28;20448;-48
2023/03/31 09:23:28;;;;;;;9.83;5.00;;;11.30;1.00;;;;;;5034152;28;20948;-49
2023/03/31 09:25:55;;;;;;;10.93;4.13;;;11.40;1.00;;;;;;5034535;28;20792;-48
2023/03/31 09:28:28;;;;;;;12.27;4.90;;;11.50;1.00;;;;;;5034520;28;20547;-49
2023/03/31 09:30:55;;;;;;;11.00;4.10;;;11.60;1.00;;;;;;5034376;28;20528;-49
2023/03/31 09:33:32;;;;;;;8.57;3.97;;;11.70;1.00;;;;;;5034781;28;20424;-49
2023/03/31 09:35:59;;;;;;;9.93;5.00;;;11.90;1.00;;;;;;5034373;28;20860;-49
2023/03/31 09:38:28;;;;;;;9.20;4.20;;;11.80;1.00;;;;;;5034431;28;20460;-49
2023/03/31 09:40:58;;;;;;;6.20;3.67;;;11.80;1.00;;;;;;5034232;28;20428;-49
2023/03/31 09:43:27;;;;;;;8.70;4.17;;;11.90;1.00;;;;;;5034251;28;20464;-49
2023/03/31 09:45:53;;;;;;;9.33;4.20;;;11.90;1.00;;;;;;5033621;28;20484;-49
2023/03/31 09:48:34;;;;;;;7.20;3.70;;;12.00;1.00;;;;;;5033993;28;20752;-49
2023/03/31 09:51:04;;;;;;;7.83;4.20;;;12.10;1.00;;;;;;5034084;28;20865;-49
2023/03/31 09:53:47;;;;;;;4.80;4.00;;;12.10;99.90;;;;;;5034257;28;20413;-49
2023/03/31 09:56:13;;;;;;;8.23;3.70;;;12.10;99.90;;;;;;5034078;28;20797;-49
2023/03/31 09:58:45;;;;;;;9.20;4.63;;;12.20;99.90;;;;;;5033843;28;20413;-49
2023/03/31 10:01:13;;;;;;;10.83;4.33;;;12.20;99.90;;;;;;5033356;28;20182;-49
2023/03/31 10:03:53;;;;;;;9.10;4.33;;;12.30;99.90;;;;;;5033616;28;20484;-49
2023/03/31 10:06:21;;;;;;;15.33;4.70;;;12.30;99.90;;;;;;5034079;28;20429;-49
2023/03/31 10:08:53;;;;;;;8.73;4.30;;;12.30;99.90;;;;;;5033182;28;20429;-49
2023/03/31 10:11:18;;;;;;;7.47;4.17;;;12.30;99.90;;;;;;5033966;28;20428;-49
2023/03/31 10:13:49;;;;;;;8.83;4.47;;;12.40;99.90;;;;;;5033700;28;20423;-48
2023/03/31 10:16:52;;;;;;;6.57;4.53;;;12.40;99.90;;;;;;5033334;28;20657;-49
2023/03/31 10:19:25;;;;;;;10.47;5.67;;;12.30;99.90;;;;;;5032128;28;20432;-48
2023/03/31 10:22:13;;;;;;;10.80;5.60;;;12.30;99.90;;;;;;5033783;28;20434;-49
2023/03/31 10:24:41;;;;;;;11.20;5.03;;;12.30;99.90;;;;;;5033830;28;20468;-48
2023/03/31 10:27:29;;;;;;;8.13;5.13;;;12.40;99.90;;;;;;5033281;28;20467;-48
2023/03/31 10:29:56;;;;;;;10.90;5.27;;;12.50;99.90;;;;;;5033363;28;20417;-49
2023/03/31 10:32:32;;;;;;;13.53;4.90;;;12.40;99.90;;;;;;5033335;28;20486;-49
2023/03/31 10:35:06;;;;;;;15.30;5.20;;;12.40;99.90;;;;;;5033754;28;20401;-49
2023/03/31 10:37:35;;;;;;;10.50;5.30;;;12.50;99.90;;;;;;5033356;28;20408;-48
2023/03/31 10:40:14;;;;;;;8.10;4.80;;;12.50;99.90;;;;;;5033438;28;20413;-49
2023/03/31 10:42:39;;;;;;;6.93;4.80;;;12.50;99.90;;;;;;5033383;28;20450;-49
2023/03/31 10:45:25;;;;;;;13.60;5.50;;;12.60;99.90;;;;;;5033005;28;20879;-49
2023/03/31 10:47:55;;;;;;;8.20;5.20;;;12.70;99.90;;;;;;5033911;28;20170;-49
2023/03/31 10:50:34;;;;;;;9.17;4.20;;;12.80;99.90;;;;;;5033952;28;20441;-49
2023/03/31 10:53:09;;;;;;;10.90;4.10;;;12.90;99.90;;;;;;5033518;28;20496;-49
2023/03/31 10:55:44;;;;;;;6.30;4.30;;;13.00;99.90;;;;;;5033262;28;20499;-49
2023/03/31 10:58:26;;;;;;;8.77;4.87;;;13.00;1.00;;;;;;5033651;28;20495;-49
2023/03/31 11:01:19;;;;;;;9.40;5.20;;;13.00;1.00;;;;;;5033306;28;20604;-49
2023/03/31 11:03:45;;;;;;;11.13;4.47;;;12.80;1.00;;;;;;5033147;28;20461;-49
2023/03/31 11:06:19;;;;;;;6.63;4.50;;;12.90;1.00;;;;;;5033613;28;20475;-49
2023/03/31 11:09:04;;;;;;;12.77;5.10;;;12.70;99.90;;;;;;5033497;28;20572;-49
2023/03/31 11:11:51;;;;;;;7.23;4.97;;;12.70;1.00;;;;;;5034685;28;20463;-49
2023/03/31 11:14:35;;;;;;;14.00;4.73;;;12.70;1.00;;;;;;5036638;28;20938;-50
2023/03/31 11:17:24;;;;;;;6.27;4.63;;;12.70;15.80;;;;;;5037077;28;20420;-48
2023/03/31 11:20:11;;;;;;;8.83;4.00;;;12.90;82.60;;;;;;5036860;28;20420;-49
2023/03/31 11:23:07;;;;;;;4.70;4.00;;;12.90;1.00;;;;;;5036732;28;20909;-48
2023/03/31 11:25:35;;;;;;;6.83;3.70;;;12.90;1.00;;;;;;5035139;28;20482;-49
2023/03/31 11:28:19;;;;;;;7.20;4.03;;;12.90;1.00;;;;;;5036658;28;20417;-49
2023/03/31 11:31:22;;;;;;;6.70;3.40;;;12.90;1.00;;;;;;5036377;28;20438;-49
2023/03/31 11:34:12;;;;;;;4.83;3.67;;;12.90;99.90;;;;;;5036806;28;20865;-49
2023/03/31 11:36:51;;;;;;;4.47;3.20;;;12.70;1.00;;;;;;5036538;28;20509;-49
2023/03/31 11:39:44;;;;;;;6.10;3.70;;;12.60;1.00;;;;;;5036427;28;20445;-47
2023/03/31 11:42:21;;;;;;;8.70;3.67;;;12.60;1.00;;;;;;5036356;28;20409;-49
2023/03/31 11:44:52;;;;;;;7.50;3.60;;;12.50;1.00;;;;;;5036065;28;20495;-50
2023/03/31 11:47:27;;;;;;;5.87;3.70;;;12.40;11.20;;;;;;5036276;28;20863;-49
2023/03/31 11:50:00;;;;;;;8.53;3.60;;;12.30;25.90;;;;;;5036088;28;20416;-49
2023/03/31 11:52:33;;;;;;;6.40;3.30;;;12.10;99.90;;;;;;5036278;28;20424;-49
2023/03/31 11:55:04;;;;;;;6.63;3.20;;;12.10;99.90;;;;;;5035609;28;20512;-48
2023/03/31 11:58:11;;;;;;;6.50;3.20;;;12.10;99.90;;;;;;5035852;28;20512;-49
2023/03/31 12:00:43;;;;;;;7.47;3.20;;;11.90;99.90;;;;;;5035516;28;21052;-48
2023/03/31 12:03:32;;;;;;;4.87;2.90;;;11.80;99.90;;;;;;5035624;28;20972;-47
2023/03/31 12:06:05;;;;;;;7.90;3.10;;;11.70;99.90;;;;;;5035854;28;20414;-48
2023/03/31 12:09:12;;;;;;;9.83;3.00;;;11.60;99.90;;;;;;5034494;28;20428;-48
2023/03/31 12:11:56;;;;;;;5.73;3.33;;;11.50;1.00;;;;;;5035936;28;20410;-48
2023/03/31 12:14:44;;;;;;;5.17;3.40;;;11.50;1.00;;;;;;5035565;28;20923;-48
2023/03/31 12:17:20;;;;;;;7.57;3.70;;;11.50;1.00;;;;;;5035598;28;20417;-47
2023/03/31 12:19:52;;;;;;;11.43;3.33;;;11.40;1.00;;;;;;5035639;28;20459;-48
2023/03/31 12:22:23;;;;;;;5.43;3.20;;;11.40;1.00;;;;;;5035449;28;20421;-48
2023/03/31 12:24:51;;;;;;;6.63;3.60;;;11.40;1.00;;;;;;5035147;28;20461;-47
2023/03/31 12:27:39;;;;;;;7.07;4.20;;;11.30;1.00;;;;;;5035756;28;20417;-47
2023/03/31 12:30:26;;;;;;;9.43;4.50;;;11.30;1.00;;;;;;5035463;28;20433;-47
2023/03/31 12:33:01;;;;;;;4.20;3.80;;;11.30;1.00;;;;;;5035498;28;20423;-48
2023/03/31 12:35:47;;;;;;;10.20;5.00;;;11.30;1.00;;;;;;5035512;28;20407;-48
2023/03/31 12:38:56;;;;;;;10.63;5.63;;;11.30;1.00;;;;;;5034775;28;20516;-48
2023/03/31 12:41:42;;;;;;;8.67;5.13;;;11.30;1.00;;;;;;5026949;28;20449;-48
2023/03/31 12:44:30;;;;;;;10.53;4.73;;;11.30;1.00;;;;;;5034890;28;20492;-48
2023/03/31 12:46:58;;;;;;;9.87;4.53;;;11.40;1.00;;;;;;5035306;28;20429;-48
2023/03/31 12:49:35;;;;;;;7.53;5.03;;;11.30;1.00;;;;;;5035256;28;20464;-48
2023/03/31 12:52:20;;;;;;;8.03;5.87;;;11.40;1.00;;;;;;5035196;28;20424;-48
2023/03/31 12:55:09;;;;;;;7.67;5.50;;;11.50;1.00;;;;;;5035279;28;20445;-48
2023/03/31 12:57:36;;;;;;;7.83;5.40;;;11.60;1.00;;;;;;5035094;28;20462;-48
2023/03/31 13:00:11;;;;;;;9.20;5.60;;;11.70;1.00;;;;;;5034867;28;20413;-48
2023/03/31 13:02:37;;;;;;;10.90;6.60;;;11.90;1.00;;;;;;5034655;28;20452;-48
2023/03/31 13:05:37;;;;;;;19.43;6.40;;;11.90;1.00;;;;;;5034991;28;20531;-48
2023/03/31 13:08:09;;;;;;;9.30;6.47;;;11.90;1.00;;;;;;5034624;28;20420;-49
2023/03/31 13:10:57;;;;;;;9.63;6.87;;;12.10;1.00;;;;;;5034843;28;20499;-49
2023/03/31 13:13:23;;;;;;;11.93;6.80;;;12.30;1.00;;;;;;5034833;28;20464;-49